Time;durP1;ratioP1;P1;durP2;ratioP2;P2;SDS_P1;SDS_P2;PMS_P1;PMS_P2;Temp;Humidity;BMP_temperature;BMP_pressure;BME280_temperature;BME280_humidity;BME280_pressure;Samples;Min_cycle;Max_cycle;Signal;HPM_P1;HPM_P2
2022/05/21 00:00:25;;;;;;;0.90;0.68;;;;;;;;;;4377649;32;20062;-63
2022/05/21 00:02:52;;;;;;;1.85;0.90;;;;;;;;;;4377082;32;20550;-64
2022/05/21 00:05:20;;;;;;;1.52;0.90;;;;;;;;;;4377303;32;20081;-64
2022/05/21 00:07:47;;;;;;;1.00;0.65;;;;;;;;;;4377686;32;20081;-65
2022/05/21 00:10:15;;;;;;;1.10;0.88;;;;;;;;;;4377268;32;20141;-64
2022/05/21 00:12:42;;;;;;;1.77;1.05;;;;;;;;;;4377419;32;20508;-64
2022/05/21 00:15:10;;;;;;;1.08;0.80;;;;;;;;;;4365003;32;20161;-64
2022/05/21 00:17:37;;;;;;;1.23;0.80;;;;;;;;;;4364907;32;20105;-64
2022/05/21 00:20:07;;;;;;;2.10;0.80;;;;;;;;;;4391314;32;20110;-64
2022/05/21 00:22:34;;;;;;;1.52;1.20;;;;;;;;;;4390913;32;20057;-64
2022/05/21 00:25:00;;;;;;;0.90;0.60;;;;;;;;;;4377278;32;20081;-64
2022/05/21 00:27:27;;;;;;;1.23;1.00;;;;;;;;;;4376928;32;20085;-64
2022/05/21 00:29:54;;;;;;;1.73;1.17;;;;;;;;;;4391060;32;20142;-65
2022/05/21 00:32:20;;;;;;;1.02;0.88;;;;;;;;;;4391157;32;20069;-65
2022/05/21 00:34:47;;;;;;;2.03;0.95;;;;;;;;;;4364551;32;20199;-65
2022/05/21 00:37:14;;;;;;;1.30;0.68;;;;;;;;;;4377220;32;20154;-63
2022/05/21 00:39:41;;;;;;;1.48;0.70;;;;;;;;;;4390756;32;20468;-64
2022/05/21 00:42:08;;;;;;;1.20;0.60;;;;;;;;;;4392059;32;20066;-65
2022/05/21 00:44:35;;;;;;;1.50;0.70;;;;;;;;;;4379976;32;20088;-64
2022/05/21 00:47:01;;;;;;;1.73;0.80;;;;;;;;;;4367873;32;20119;-63
2022/05/21 00:49:31;;;;;;;2.87;0.77;;;;;;;;;;4388999;32;20129;-63
2022/05/21 00:52:08;;;;;;;0.77;0.70;;;;;;;;;;4385311;32;20156;-63
2022/05/21 00:54:47;;;;;;;0.70;0.60;;;;;;;;;;4367379;32;20120;-63
2022/05/21 00:57:24;;;;;;;1.55;1.00;;;;;;;;;;4368185;32;20089;-64
2022/05/21 00:59:56;;;;;;;0.85;0.60;;;;;;;;;;4393946;32;20089;-65
2022/05/21 01:02:32;;;;;;;5.53;1.60;;;;;;;;;;4383495;32;20092;-65
2022/05/21 01:05:02;;;;;;;3.30;1.03;;;;;;;;;;4384531;32;20175;-64
2022/05/21 01:07:29;;;;;;;1.10;1.00;;;;;;;;;;4371295;32;20176;-64
2022/05/21 01:09:57;;;;;;;0.60;0.60;;;;;;;;;;4383535;32;20165;-64
2022/05/21 01:12:30;;;;;;;0.75;0.62;;;;;;;;;;4357422;32;20160;-63
2022/05/21 01:14:59;;;;;;;1.48;0.93;;;;;;;;;;4367590;32;20189;-64
2022/05/21 01:17:26;;;;;;;1.83;0.90;;;;;;;;;;4395173;32;20068;-64
2022/05/21 01:20:08;;;;;;;1.30;0.85;;;;;;;;;;4393757;32;20451;-64
2022/05/21 01:22:44;;;;;;;1.37;0.90;;;;;;;;;;4354844;32;20140;-64
2022/05/21 01:25:12;;;;;;;1.50;0.80;;;;;;;;;;4367328;32;20081;-63
2022/05/21 01:27:40;;;;;;;1.08;0.88;;;;;;;;;;4393369;32;20073;-64
2022/05/21 01:30:09;;;;;;;1.90;0.85;;;;;;;;;;4379208;32;20112;-64
2022/05/21 01:32:35;;;;;;;1.85;0.90;;;;;;;;;;4379732;32;20186;-65
2022/05/21 01:35:03;;;;;;;1.25;0.80;;;;;;;;;;4366457;32;20511;-64
2022/05/21 01:37:31;;;;;;;1.75;0.90;;;;;;;;;;4366742;32;20530;-64
2022/05/21 01:39:57;;;;;;;1.30;1.12;;;;;;;;;;4379028;32;20076;-65
2022/05/21 01:42:24;;;;;;;1.05;0.85;;;;;;;;;;4379189;32;20105;-65
2022/05/21 01:44:52;;;;;;;2.67;1.10;;;;;;;;;;4379186;32;20078;-64
2022/05/21 01:47:20;;;;;;;1.00;0.88;;;;;;;;;;4367236;32;20089;-64
2022/05/21 01:49:47;;;;;;;2.20;1.30;;;;;;;;;;4379436;32;20089;-64
2022/05/21 01:52:14;;;;;;;2.08;1.00;;;;;;;;;;4378916;32;20452;-64
2022/05/21 01:54:41;;;;;;;1.80;1.10;;;;;;;;;;4378432;32;20074;-64
2022/05/21 01:57:09;;;;;;;2.00;1.17;;;;;;;;;;4393067;32;20088;-63
2022/05/21 01:59:36;;;;;;;1.85;0.98;;;;;;;;;;4379153;32;20070;-65
2022/05/21 02:02:03;;;;;;;0.80;0.80;;;;;;;;;;4393235;32;20142;-64
2022/05/21 02:04:30;;;;;;;0.77;0.73;;;;;;;;;;4379064;32;20090;-64
2022/05/21 02:06:56;;;;;;;1.52;1.27;;;;;;;;;;4392787;32;20508;-64
2022/05/21 02:09:23;;;;;;;3.33;1.87;;;;;;;;;;4366037;32;20099;-65
2022/05/21 02:11:50;;;;;;;2.25;1.50;;;;;;;;;;4392991;32;20519;-64
2022/05/21 02:14:17;;;;;;;2.05;1.37;;;;;;;;;;4392932;32;20591;-64
2022/05/21 02:16:43;;;;;;;1.20;1.10;;;;;;;;;;4392546;32;20089;-64
2022/05/21 02:19:10;;;;;;;2.37;0.98;;;;;;;;;;4392645;32;20543;-64
2022/05/21 02:21:38;;;;;;;3.67;1.40;;;;;;;;;;4392407;32;20058;-64
2022/05/21 02:24:05;;;;;;;2.87;1.25;;;;;;;;;;4392154;32;20465;-63
2022/05/21 02:26:39;;;;;;;3.55;1.58;;;;;;;;;;4366022;32;20162;-63
2022/05/21 02:29:06;;;;;;;6.68;2.03;;;;;;;;;;4378790;32;20077;-64
2022/05/21 02:31:33;;;;;;;0.20;0.20;;;;;;;;;;4378245;32;20069;-63
2022/05/21 02:34:00;;;;;;;2.50;0.95;;;;;;;;;;4392646;32;20074;-64
2022/05/21 02:39:26;;;;;;;2.08;1.42;;;;;;;;;;4376941;32;20058;-64
2022/05/21 02:41:53;;;;;;;1.85;1.20;;;;;;;;;;4392109;32;20089;-64
2022/05/21 02:44:20;;;;;;;2.90;1.12;;;;;;;;;;4378099;32;20085;-64
2022/05/21 02:46:46;;;;;;;1.80;1.35;;;;;;;;;;4378105;32;20085;-65
2022/05/21 02:49:13;;;;;;;2.47;1.40;;;;;;;;;;4392386;32;20089;-64
2022/05/21 02:51:40;;;;;;;3.10;1.87;;;;;;;;;;4392124;32;20093;-64
2022/05/21 02:54:09;;;;;;;1.92;1.33;;;;;;;;;;4365985;32;20240;-64
2022/05/21 02:56:36;;;;;;;4.97;1.80;;;;;;;;;;4378481;32;20492;-64
2022/05/21 02:59:06;;;;;;;4.40;2.20;;;;;;;;;;4365656;32;20151;-64
2022/05/21 03:02:19;;;;;;;2.20;1.57;;;;;;;;;;3857416;37;20439;-64
2022/05/21 03:04:46;;;;;;;5.97;1.90;;;;;;;;;;4393014;32;20509;-64
2022/05/21 03:07:13;;;;;;;1.35;0.95;;;;;;;;;;4405819;32;20082;-64
2022/05/21 03:12:25;;;;;;;1.08;1.00;;;;;;;;;;4405950;32;20446;-63
2022/05/21 03:14:51;;;;;;;4.50;2.25;;;;;;;;;;4419767;32;20495;-65
2022/05/21 03:17:18;;;;;;;4.07;2.30;;;;;;;;;;4419847;32;20076;-64
2022/05/21 03:19:45;;;;;;;2.70;1.92;;;;;;;;;;4405468;32;20101;-64
2022/05/21 03:22:11;;;;;;;2.00;1.80;;;;;;;;;;4419349;32;20157;-64
2022/05/21 03:24:38;;;;;;;3.10;2.17;;;;;;;;;;4393315;32;20089;-64
2022/05/21 03:27:07;;;;;;;5.35;2.28;;;;;;;;;;4431902;32;20077;-64
2022/05/21 03:29:34;;;;;;;2.50;1.92;;;;;;;;;;4411312;32;20073;-63
2022/05/21 03:32:00;;;;;;;2.45;1.90;;;;;;;;;;4392742;32;20458;-63
2022/05/21 03:34:27;;;;;;;3.40;2.28;;;;;;;;;;4419329;32;20075;-64
2022/05/21 03:36:53;;;;;;;8.00;2.33;;;;;;;;;;4392991;32;20077;-63
2022/05/21 03:39:20;;;;;;;3.42;2.10;;;;;;;;;;4405583;32;20061;-64
2022/05/21 03:41:47;;;;;;;2.15;1.75;;;;;;;;;;4392433;32;20077;-64
2022/05/21 03:44:13;;;;;;;3.97;2.05;;;;;;;;;;4419365;32;20066;-64
2022/05/21 03:46:40;;;;;;;5.62;2.20;;;;;;;;;;4404992;32;20101;-63
2022/05/21 03:49:07;;;;;;;7.00;2.28;;;;;;;;;;4404874;32;20467;-63
2022/05/21 03:51:34;;;;;;;2.78;2.20;;;;;;;;;;4404655;32;20152;-64
2022/05/21 03:54:00;;;;;;;3.97;2.53;;;;;;;;;;4419282;32;20096;-63
2022/05/21 03:56:27;;;;;;;3.10;2.15;;;;;;;;;;4419665;32;20586;-63
2022/05/21 03:58:54;;;;;;;3.28;2.30;;;;;;;;;;4419150;32;20155;-64
2022/05/21 04:01:20;;;;;;;2.97;1.83;;;;;;;;;;4404946;32;20089;-64
2022/05/21 04:03:48;;;;;;;4.68;2.25;;;;;;;;;;4392060;32;20079;-64
2022/05/21 04:06:15;;;;;;;4.37;2.17;;;;;;;;;;4405561;32;20073;-63
2022/05/21 04:08:41;;;;;;;4.30;2.00;;;;;;;;;;4419341;32;20077;-63
2022/05/21 04:11:08;;;;;;;4.75;2.60;;;;;;;;;;4404599;32;20521;-65
2022/05/21 04:13:35;;;;;;;6.65;2.55;;;;;;;;;;4409506;32;20501;-63
2022/05/21 04:16:01;;;;;;;4.57;2.10;;;;;;;;;;4408653;32;20156;-64
2022/05/21 04:18:28;;;;;;;1.92;1.37;;;;;;;;;;4408588;32;20168;-63
2022/05/21 04:20:54;;;;;;;2.85;2.25;;;;;;;;;;4408460;32;20065;-64
2022/05/21 04:23:21;;;;;;;4.60;2.55;;;;;;;;;;4408999;32;20093;-64
2022/05/21 04:25:48;;;;;;;3.47;2.45;;;;;;;;;;4408508;32;20229;-63
2022/05/21 04:28:14;;;;;;;2.95;2.08;;;;;;;;;;4394341;32;20088;-64
2022/05/21 04:30:41;;;;;;;6.90;2.33;;;;;;;;;;4382123;32;20087;-63
2022/05/21 04:33:08;;;;;;;6.65;2.53;;;;;;;;;;4408190;32;20070;-64
2022/05/21 04:38:20;;;;;;;4.43;2.05;;;;;;;;;;4394526;32;20073;-64
2022/05/21 04:40:47;;;;;;;4.70;2.17;;;;;;;;;;4408336;32;20085;-64
2022/05/21 04:43:14;;;;;;;2.58;1.87;;;;;;;;;;4394617;32;20081;-64
2022/05/21 04:45:40;;;;;;;4.43;1.25;;;;;;;;;;4381720;32;20073;-63
2022/05/21 04:48:08;;;;;;;3.33;2.20;;;;;;;;;;4369191;32;20092;-63
2022/05/21 04:50:36;;;;;;;6.90;2.12;;;;;;;;;;4382360;32;20145;-63
2022/05/21 04:53:03;;;;;;;5.45;2.37;;;;;;;;;;4382527;32;20077;-65
2022/05/21 04:55:30;;;;;;;5.00;2.40;;;;;;;;;;4394525;32;20066;-64
2022/05/21 04:57:57;;;;;;;2.80;2.10;;;;;;;;;;4382608;32;20085;-63
2022/05/21 05:00:24;;;;;;;2.28;1.52;;;;;;;;;;4386401;32;20523;-63
2022/05/21 05:02:50;;;;;;;3.87;2.47;;;;;;;;;;4410377;32;20077;-64
2022/05/21 05:05:17;;;;;;;4.35;2.65;;;;;;;;;;4382190;32;20082;-64
2022/05/21 05:07:44;;;;;;;5.18;2.08;;;;;;;;;;4409137;32;20499;-64
2022/05/21 05:10:11;;;;;;;3.87;1.60;;;;;;;;;;4409449;32;20153;-63
2022/05/21 05:12:37;;;;;;;3.95;2.15;;;;;;;;;;4393799;32;20540;-63
2022/05/21 05:15:04;;;;;;;3.55;1.83;;;;;;;;;;4408300;32;20097;-63
2022/05/21 05:17:31;;;;;;;5.05;2.40;;;;;;;;;;4368944;32;20077;-64
2022/05/21 05:20:00;;;;;;;3.97;2.55;;;;;;;;;;4393822;32;20576;-63
2022/05/21 05:22:27;;;;;;;2.05;1.58;;;;;;;;;;4407471;32;20097;-64
2022/05/21 05:24:53;;;;;;;5.93;2.30;;;;;;;;;;4393145;32;20443;-64
2022/05/21 05:27:20;;;;;;;2.15;1.58;;;;;;;;;;4407844;32;20068;-64
2022/05/21 05:29:47;;;;;;;3.58;2.60;;;;;;;;;;4393367;32;20190;-64
2022/05/21 05:32:13;;;;;;;5.60;2.20;;;;;;;;;;4380331;32;20536;-64
2022/05/21 05:34:40;;;;;;;4.40;2.22;;;;;;;;;;4407291;32;20062;-64
2022/05/21 05:37:07;;;;;;;5.60;2.55;;;;;;;;;;4407359;32;20089;-64
2022/05/21 05:39:33;;;;;;;3.12;2.10;;;;;;;;;;4393463;32;20169;-65
2022/05/21 05:42:04;;;;;;;5.18;2.20;;;;;;;;;;4407068;32;20500;-63
2022/05/21 05:44:31;;;;;;;5.97;2.60;;;;;;;;;;4407865;32;20065;-63
2022/05/21 05:46:58;;;;;;;4.47;2.53;;;;;;;;;;4393091;32;20065;-64
2022/05/21 05:49:25;;;;;;;3.15;2.25;;;;;;;;;;4407617;32;20182;-63
2022/05/21 05:52:05;;;;;;;4.33;2.50;;;;;;;;;;3857360;37;20436;-64
2022/05/21 05:54:33;;;;;;;5.32;2.40;;;;;;;;;;4419187;32;20191;-66
2022/05/21 05:57:00;;;;;;;2.87;1.77;;;;;;;;;;4418093;32;20057;-65
2022/05/21 06:04:57;;;;;;;7.37;3.17;;;;;;;;;;4427999;32;20069;-65
2022/05/21 06:07:24;;;;;;;5.37;2.80;;;;;;;;;;4426272;32;20092;-65
2022/05/21 06:09:51;;;;;;;5.65;2.95;;;;;;;;;;4420157;32;20100;-65
2022/05/21 06:12:17;;;;;;;1.58;1.17;;;;;;;;;;4419890;32;20152;-64
2022/05/21 06:14:45;;;;;;;3.53;2.05;;;;;;;;;;4418227;32;20069;-65
2022/05/21 06:17:12;;;;;;;3.17;2.70;;;;;;;;;;4418111;32;20104;-64
2022/05/21 06:19:39;;;;;;;3.87;2.65;;;;;;;;;;4418305;32;20148;-65
2022/05/21 06:22:06;;;;;;;5.03;2.65;;;;;;;;;;4405884;32;20084;-64
2022/05/21 06:24:36;;;;;;;2.35;1.08;;;;;;;;;;4417772;32;20467;-65
2022/05/21 06:27:06;;;;;;;4.62;2.53;;;;;;;;;;4419569;32;20083;-64
2022/05/21 06:29:35;;;;;;;3.37;1.95;;;;;;;;;;4418287;32;20500;-64
2022/05/21 06:32:04;;;;;;;0.98;0.85;;;;;;;;;;4418148;32;20085;-64
2022/05/21 06:34:31;;;;;;;3.65;1.73;;;;;;;;;;4418178;32;20160;-65
2022/05/21 06:37:03;;;;;;;3.65;2.40;;;;;;;;;;4419218;32;20161;-63
2022/05/21 06:39:34;;;;;;;2.30;1.85;;;;;;;;;;4418252;32;20076;-64
2022/05/21 06:42:02;;;;;;;6.20;2.40;;;;;;;;;;4405230;32;20068;-65
2022/05/21 06:44:29;;;;;;;3.15;2.10;;;;;;;;;;4417781;32;20207;-63
2022/05/21 06:46:56;;;;;;;5.65;2.28;;;;;;;;;;4417680;32;20093;-64
2022/05/21 06:49:23;;;;;;;2.78;1.77;;;;;;;;;;4417525;32;20096;-65
2022/05/21 06:51:54;;;;;;;2.45;1.90;;;;;;;;;;4404412;32;20105;-65
2022/05/21 06:54:21;;;;;;;2.72;2.15;;;;;;;;;;4418027;32;20097;-65
2022/05/21 06:56:48;;;;;;;5.25;2.20;;;;;;;;;;4404502;32;20108;-64
2022/05/21 06:59:15;;;;;;;2.78;1.80;;;;;;;;;;4418047;32;20073;-65
2022/05/21 07:01:42;;;;;;;2.80;1.95;;;;;;;;;;4401970;32;20062;-63
2022/05/21 07:04:09;;;;;;;2.67;2.08;;;;;;;;;;4407331;32;20161;-64
2022/05/21 07:09:21;;;;;;;2.28;1.87;;;;;;;;;;4407580;32;20508;-64
2022/05/21 07:11:51;;;;;;;2.85;1.70;;;;;;;;;;4408445;32;20078;-64
2022/05/21 07:14:18;;;;;;;2.33;1.40;;;;;;;;;;4407092;32;20077;-64
2022/05/21 07:16:45;;;;;;;5.18;2.05;;;;;;;;;;4408476;32;20094;-64
2022/05/21 07:19:12;;;;;;;2.58;1.75;;;;;;;;;;4408813;32;20504;-66
2022/05/21 07:21:39;;;;;;;1.98;1.70;;;;;;;;;;4407048;32;20148;-66
2022/05/21 07:24:06;;;;;;;2.58;1.30;;;;;;;;;;4394193;32;20177;-65
2022/05/21 07:26:32;;;;;;;2.10;1.02;;;;;;;;;;4394587;32;20105;-64
2022/05/21 07:28:59;;;;;;;6.82;1.25;;;;;;;;;;4408528;32;20148;-66
2022/05/21 07:31:26;;;;;;;1.98;1.42;;;;;;;;;;4408197;32;20145;-66
2022/05/21 07:33:53;;;;;;;6.75;1.98;;;;;;;;;;4408653;32;20160;-64
2022/05/21 07:36:19;;;;;;;2.03;1.00;;;;;;;;;;4396739;32;20078;-65
2022/05/21 07:38:46;;;;;;;0.98;0.77;;;;;;;;;;4411503;32;20238;-64
2022/05/21 07:41:13;;;;;;;3.62;1.60;;;;;;;;;;4411198;32;20097;-63
2022/05/21 07:43:39;;;;;;;2.30;1.70;;;;;;;;;;4411058;32;20099;-63
2022/05/21 07:46:07;;;;;;;1.62;1.23;;;;;;;;;;4411219;32;20088;-63
2022/05/21 07:48:34;;;;;;;1.35;1.20;;;;;;;;;;4408643;32;20069;-63
2022/05/21 07:51:03;;;;;;;3.28;1.27;;;;;;;;;;4406342;32;20069;-63
2022/05/21 07:53:35;;;;;;;3.12;1.17;;;;;;;;;;4408870;32;20247;-63
2022/05/21 07:56:02;;;;;;;3.17;1.27;;;;;;;;;;4406684;32;20085;-63
2022/05/21 07:58:31;;;;;;;1.33;0.90;;;;;;;;;;4407483;32;20092;-64
2022/05/21 08:00:58;;;;;;;1.70;1.33;;;;;;;;;;4406554;32;20516;-64
2022/05/21 08:03:25;;;;;;;2.60;1.50;;;;;;;;;;4382043;32;20109;-63
2022/05/21 08:05:53;;;;;;;3.25;1.50;;;;;;;;;;4394329;32;20171;-62
2022/05/21 08:08:20;;;;;;;4.25;1.50;;;;;;;;;;4381722;32;20088;-63
2022/05/21 08:10:47;;;;;;;5.03;1.20;;;;;;;;;;4406305;32;20441;-63
2022/05/21 08:13:15;;;;;;;2.22;1.60;;;;;;;;;;4407555;32;20071;-63
2022/05/21 08:15:43;;;;;;;4.60;1.27;;;;;;;;;;4407339;32;20082;-63
2022/05/21 08:18:09;;;;;;;1.08;0.65;;;;;;;;;;4393064;32;20467;-63
2022/05/21 08:20:37;;;;;;;2.12;1.40;;;;;;;;;;4406531;32;20161;-62
2022/05/21 08:28:35;;;;;;;2.25;1.00;;;;;;;;;;4407550;32;20061;-63
2022/05/21 08:31:03;;;;;;;4.32;1.17;;;;;;;;;;4407315;32;20073;-63
2022/05/21 08:33:30;;;;;;;2.70;1.20;;;;;;;;;;4406508;32;20069;-62
2022/05/21 08:35:56;;;;;;;1.27;1.17;;;;;;;;;;4380767;32;20081;-62
2022/05/21 08:38:23;;;;;;;1.50;1.17;;;;;;;;;;4405733;32;20078;-62
2022/05/21 08:41:19;;;;;;;2.50;1.45;;;;;;;;;;4406120;32;20093;-63
2022/05/21 08:43:55;;;;;;;1.40;0.55;;;;;;;;;;4393744;32;20093;-63
2022/05/21 08:46:30;;;;;;;1.15;0.90;;;;;;;;;;4407908;32;20161;-63
2022/05/21 08:49:04;;;;;;;4.53;1.17;;;;;;;;;;4407841;32;20065;-62
2022/05/21 08:52:15;;;;;;;1.23;0.82;;;;;;;;;;4405762;32;20463;-64
2022/05/21 08:54:45;;;;;;;1.12;0.70;;;;;;;;;;4391821;32;20082;-62
2022/05/21 08:57:32;;;;;;;1.95;1.15;;;;;;;;;;4393069;32;20157;-63
2022/05/21 09:00:14;;;;;;;2.17;1.00;;;;;;;;;;4405336;32;20552;-62
2022/05/21 09:02:41;;;;;;;1.92;1.12;;;;;;;;;;4406134;32;20484;-63
2022/05/21 09:05:12;;;;;;;1.05;0.98;;;;;;;;;;4405948;32;20169;-63
2022/05/21 09:07:51;;;;;;;1.25;0.90;;;;;;;;;;4406090;32;20076;-63
2022/05/21 09:10:28;;;;;;;1.33;0.90;;;;;;;;;;4407179;32;20081;-63
2022/05/21 09:13:02;;;;;;;2.80;1.00;;;;;;;;;;4393945;32;20070;-63
2022/05/21 09:18:14;;;;;;;1.25;0.77;;;;;;;;;;4406894;32;20085;-64
2022/05/21 09:21:03;;;;;;;3.33;1.30;;;;;;;;;;4401610;32;20093;-66
2022/05/21 09:23:49;;;;;;;2.50;0.88;;;;;;;;;;4403464;32;20154;-66
2022/05/21 09:26:19;;;;;;;1.20;0.93;;;;;;;;;;4386299;32;20070;-63
2022/05/21 09:28:48;;;;;;;1.73;0.60;;;;;;;;;;4380908;32;20094;-63
2022/05/21 09:31:21;;;;;;;2.53;0.85;;;;;;;;;;4406401;32;20153;-63
2022/05/21 09:33:47;;;;;;;5.55;1.17;;;;;;;;;;4393864;32;20154;-63
2022/05/21 09:36:21;;;;;;;1.52;1.00;;;;;;;;;;4393386;32;20084;-64
2022/05/21 09:38:53;;;;;;;1.62;1.15;;;;;;;;;;4405181;32;20077;-63
2022/05/21 09:41:23;;;;;;;1.10;0.75;;;;;;;;;;4392801;32;20081;-63
2022/05/21 09:46:39;;;;;;;1.20;1.10;;;;;;;;;;4395210;32;20519;-63
2022/05/21 09:49:28;;;;;;;1.30;1.02;;;;;;;;;;4406344;32;20588;-64
2022/05/21 09:52:07;;;;;;;3.45;1.00;;;;;;;;;;4404875;32;20111;-63
2022/05/21 09:54:35;;;;;;;3.22;0.95;;;;;;;;;;4406051;32;20080;-64
2022/05/21 09:57:02;;;;;;;1.30;1.00;;;;;;;;;;4406699;32;20148;-63
2022/05/21 09:59:33;;;;;;;1.25;0.73;;;;;;;;;;4405064;32;20597;-65
2022/05/21 10:02:13;;;;;;;1.60;0.85;;;;;;;;;;4380481;32;20087;-63
2022/05/21 10:04:43;;;;;;;1.23;1.02;;;;;;;;;;4405358;32;20100;-63
2022/05/21 10:10:58;;;;;;;1.83;0.80;;;;;;;;;;4405244;32;20109;-62
2022/05/21 10:12:49;;;;;;;0.80;0.70;;;;;;;;;;4405379;32;20062;-64
2022/05/21 10:15:18;;;;;;;1.58;1.10;;;;;;;;;;4405622;32;20085;-64
2022/05/21 10:17:48;;;;;;;1.90;1.15;;;;;;;;;;4379863;32;20073;-65
2022/05/21 10:20:17;;;;;;;3.40;1.02;;;;;;;;;;4404794;32;20089;-65
2022/05/21 10:23:11;;;;;;;2.40;0.90;;;;;;;;;;4404953;32;20080;-64
2022/05/21 10:26:01;;;;;;;2.65;0.93;;;;;;;;;;4405814;32;20077;-64
2022/05/21 10:28:39;;;;;;;1.40;0.60;;;;;;;;;;4406182;32;20166;-63
2022/05/21 10:31:19;;;;;;;1.08;0.68;;;;;;;;;;4404884;32;20108;-64
2022/05/21 10:34:06;;;;;;;0.80;0.77;;;;;;;;;;4406429;32;20054;-63
2022/05/21 10:37:02;;;;;;;3.20;0.73;;;;;;;;;;4392301;32;20085;-64
2022/05/21 10:39:56;;;;;;;1.58;0.60;;;;;;;;;;4407972;32;20148;-64
2022/05/21 10:42:42;;;;;;;0.65;0.47;;;;;;;;;;4408305;32;20080;-64
2022/05/21 10:45:30;;;;;;;0.70;0.60;;;;;;;;;;4407790;32;20157;-65
2022/05/21 10:48:18;;;;;;;3.70;0.73;;;;;;;;;;4395110;32;20073;-64
2022/05/21 10:51:00;;;;;;;3.20;1.00;;;;;;;;;;4406794;32;20094;-63
2022/05/21 10:54:01;;;;;;;2.83;1.67;;;;;;;;;;4408009;32;20155;-62
2022/05/21 10:56:34;;;;;;;1.15;0.70;;;;;;;;;;4407615;32;20162;-64
2022/05/21 10:59:33;;;;;;;1.83;0.85;;;;;;;;;;4407617;32;20448;-63
2022/05/21 11:02:08;;;;;;;0.88;0.60;;;;;;;;;;4407448;32;20088;-63
2022/05/21 11:05:03;;;;;;;8.73;0.90;;;;;;;;;;4408552;32;20073;-64
2022/05/21 11:07:57;;;;;;;3.12;0.77;;;;;;;;;;4407883;32;20134;-63
2022/05/21 11:10:36;;;;;;;0.73;0.73;;;;;;;;;;4406997;32;20458;-63
2022/05/21 11:13:07;;;;;;;1.40;0.82;;;;;;;;;;4406986;32;20519;-63
2022/05/21 11:16:12;;;;;;;0.75;0.70;;;;;;;;;;4407873;32;20077;-63
2022/05/21 11:18:55;;;;;;;0.85;0.52;;;;;;;;;;4396111;32;20500;-65
2022/05/21 11:21:28;;;;;;;2.25;1.12;;;;;;;;;;4397786;32;20452;-66
2022/05/21 11:24:11;;;;;;;2.17;1.23;;;;;;;;;;4409938;32;20161;-63
2022/05/21 11:26:51;;;;;;;0.85;0.85;;;;;;;;;;4408009;32;20093;-63
2022/05/21 11:29:59;;;;;;;1.20;1.10;;;;;;;;;;4394319;32;20230;-64
2022/05/21 11:38:25;;;;;;;2.65;0.75;;;;;;;;;;4396300;32;20148;-62
2022/05/21 11:46:50;;;;;;;3.75;1.37;;;;;;;;;;4408334;32;20219;-65
2022/05/21 11:49:29;;;;;;;3.28;1.48;;;;;;;;;;4393884;32;20096;-63
2022/05/21 11:51:58;;;;;;;1.10;1.00;;;;;;;;;;4406705;32;20069;-63
2022/05/21 11:54:45;;;;;;;0.37;0.32;;;;;;;;;;4406744;32;20097;-63
2022/05/21 11:57:40;;;;;;;1.73;0.95;;;;;;;;;;4397645;32;20073;-64
2022/05/21 12:00:26;;;;;;;2.08;1.12;;;;;;;;;;4407347;32;20139;-63
2022/05/21 12:02:59;;;;;;;1.40;1.10;;;;;;;;;;4406300;32;20159;-63
2022/05/21 12:05:41;;;;;;;3.20;1.10;;;;;;;;;;4407542;32;20073;-64
2022/05/21 12:08:23;;;;;;;1.77;1.33;;;;;;;;;;4408318;32;20546;-64
2022/05/21 12:11:02;;;;;;;2.95;1.37;;;;;;;;;;4406783;32;20058;-63
2022/05/21 12:13:35;;;;;;;3.30;1.67;;;;;;;;;;4405996;32;20087;-63
2022/05/21 12:16:20;;;;;;;2.33;1.35;;;;;;;;;;4406639;32;20104;-63
2022/05/21 12:18:55;;;;;;;3.40;1.40;;;;;;;;;;4406664;32;20073;-63
2022/05/21 12:21:36;;;;;;;2.35;1.20;;;;;;;;;;4406394;32;20080;-64
2022/05/21 12:24:21;;;;;;;1.50;1.10;;;;;;;;;;4406463;32;20156;-63
2022/05/21 12:26:48;;;;;;;2.40;1.40;;;;;;;;;;4408354;32;20569;-63
2022/05/21 12:29:21;;;;;;;2.00;1.02;;;;;;;;;;4406295;32;20163;-65
2022/05/21 12:31:53;;;;;;;1.98;0.85;;;;;;;;;;4393396;32;20077;-63
2022/05/21 12:34:22;;;;;;;1.15;0.88;;;;;;;;;;4393399;32;20077;-64
2022/05/21 12:37:18;;;;;;;3.60;1.00;;;;;;;;;;4407848;32;20077;-63
2022/05/21 12:39:47;;;;;;;2.65;1.17;;;;;;;;;;4393411;32;20448;-64
2022/05/21 12:42:39;;;;;;;2.75;1.50;;;;;;;;;;4406452;32;20077;-64
2022/05/21 12:45:07;;;;;;;2.62;1.10;;;;;;;;;;4405795;32;20073;-64
2022/05/21 12:47:38;;;;;;;6.03;1.42;;;;;;;;;;4406455;32;20081;-64
2022/05/21 12:50:20;;;;;;;1.55;1.15;;;;;;;;;;4392878;32;20100;-63
2022/05/21 12:52:53;;;;;;;1.27;1.17;;;;;;;;;;4405909;32;20172;-65
2022/05/21 12:55:28;;;;;;;2.90;1.35;;;;;;;;;;4406883;32;20072;-64
2022/05/21 12:58:08;;;;;;;1.92;1.20;;;;;;;;;;4406050;32;20074;-64
2022/05/21 13:00:36;;;;;;;2.72;1.15;;;;;;;;;;4406812;32;20103;-64
2022/05/21 13:03:08;;;;;;;3.95;1.50;;;;;;;;;;4392982;32;20100;-64
2022/05/21 13:06:07;;;;;;;2.03;1.17;;;;;;;;;;4405521;32;20100;-64
2022/05/21 13:08:36;;;;;;;2.28;0.95;;;;;;;;;;4403981;32;20069;-62
2022/05/21 13:11:16;;;;;;;2.35;1.25;;;;;;;;;;4405470;32;20559;-64
2022/05/21 13:13:46;;;;;;;1.90;0.95;;;;;;;;;;4407067;32;20572;-64
2022/05/21 13:16:18;;;;;;;3.00;1.55;;;;;;;;;;4405847;32;20096;-64
2022/05/21 13:18:58;;;;;;;2.00;1.45;;;;;;;;;;4405516;32;20524;-63
2022/05/21 13:21:44;;;;;;;2.05;1.08;;;;;;;;;;4392831;32;20085;-64
2022/05/21 13:24:34;;;;;;;1.08;0.98;;;;;;;;;;4405244;32;20065;-63
2022/05/21 13:27:10;;;;;;;1.42;1.00;;;;;;;;;;4395364;32;20451;-64
2022/05/21 13:29:37;;;;;;;2.17;1.27;;;;;;;;;;4405141;32;20085;-64
2022/05/21 13:32:25;;;;;;;1.00;0.90;;;;;;;;;;4404844;32;20151;-64
2022/05/21 13:34:57;;;;;;;2.87;1.58;;;;;;;;;;4406637;32;20079;-63
2022/05/21 13:37:38;;;;;;;3.53;1.33;;;;;;;;;;4380272;32;20068;-64
2022/05/21 13:40:08;;;;;;;1.62;1.23;;;;;;;;;;4405399;32;20101;-64
2022/05/21 13:42:36;;;;;;;3.20;1.48;;;;;;;;;;4405219;32;20092;-65
2022/05/21 13:45:16;;;;;;;1.42;1.25;;;;;;;;;;4392653;32;20069;-65
2022/05/21 13:47:58;;;;;;;2.65;1.35;;;;;;;;;;4405602;32;20169;-65
2022/05/21 13:50:27;;;;;;;3.47;1.30;;;;;;;;;;4405346;32;20080;-64
2022/05/21 13:52:54;;;;;;;3.30;1.15;;;;;;;;;;4392731;32;20464;-63
2022/05/21 13:55:20;;;;;;;3.25;1.45;;;;;;;;;;4405110;32;20515;-62
2022/05/21 13:57:47;;;;;;;1.62;1.15;;;;;;;;;;4392629;32;20077;-64
2022/05/21 14:00:29;;;;;;;2.10;0.73;;;;;;;;;;4409155;32;20504;-64
2022/05/21 14:02:55;;;;;;;2.22;1.27;;;;;;;;;;4406448;32;20611;-64
2022/05/21 14:05:46;;;;;;;2.35;1.15;;;;;;;;;;4406028;32;20081;-65
2022/05/21 14:08:19;;;;;;;1.83;1.17;;;;;;;;;;4381800;32;20062;-63
2022/05/21 14:11:00;;;;;;;3.33;0.88;;;;;;;;;;4407693;32;20189;-64
2022/05/21 14:13:35;;;;;;;1.42;0.90;;;;;;;;;;4412157;32;20092;-63
2022/05/21 14:16:08;;;;;;;4.37;1.40;;;;;;;;;;4413801;32;20062;-64
2022/05/21 14:18:38;;;;;;;2.15;1.45;;;;;;;;;;4413813;32;20085;-64
2022/05/21 14:21:18;;;;;;;0.98;0.98;;;;;;;;;;4399846;32;20070;-65
2022/05/21 14:23:46;;;;;;;2.78;1.60;;;;;;;;;;4409056;32;20069;-64
2022/05/21 14:26:17;;;;;;;3.70;1.40;;;;;;;;;;4407823;32;20533;-64
2022/05/21 14:28:45;;;;;;;1.58;1.37;;;;;;;;;;4408302;32;20065;-64
2022/05/21 14:31:38;;;;;;;3.22;1.42;;;;;;;;;;4408120;32;20088;-65
2022/05/21 14:34:13;;;;;;;2.80;1.40;;;;;;;;;;4407677;32;20081;-63
2022/05/21 14:36:43;;;;;;;2.17;1.40;;;;;;;;;;4409551;32;20508;-65
2022/05/21 14:39:13;;;;;;;5.07;1.65;;;;;;;;;;4408147;32;20103;-63
2022/05/21 14:41:43;;;;;;;3.03;1.80;;;;;;;;;;4408332;32;20088;-64
2022/05/21 14:44:17;;;;;;;3.42;1.37;;;;;;;;;;4395192;32;20073;-64
2022/05/21 14:49:29;;;;;;;3.78;1.40;;;;;;;;;;4408174;32;20078;-64
2022/05/21 14:54:43;;;;;;;3.50;1.48;;;;;;;;;;4397209;32;20162;-64
2022/05/21 14:57:12;;;;;;;1.98;1.50;;;;;;;;;;4395001;32;20168;-63
2022/05/21 14:59:38;;;;;;;4.43;1.52;;;;;;;;;;4407361;32;20081;-64
2022/05/21 15:02:06;;;;;;;3.12;1.70;;;;;;;;;;4407387;32;20069;-65
2022/05/21 15:04:34;;;;;;;4.03;1.58;;;;;;;;;;4394999;32;20112;-63
2022/05/21 15:07:01;;;;;;;2.92;1.58;;;;;;;;;;4406946;32;20073;-63
2022/05/21 15:09:30;;;;;;;2.00;1.45;;;;;;;;;;4409851;32;20129;-63
2022/05/21 15:11:57;;;;;;;3.62;1.67;;;;;;;;;;4417470;32;20134;-64
2022/05/21 15:14:23;;;;;;;3.75;1.58;;;;;;;;;;4418360;32;20072;-64
2022/05/21 15:16:50;;;;;;;4.50;2.20;;;;;;;;;;4412216;32;20099;-64
2022/05/21 15:19:17;;;;;;;2.65;1.80;;;;;;;;;;4409145;32;20072;-63
2022/05/21 15:21:45;;;;;;;3.87;2.08;;;;;;;;;;4412351;32;20452;-63
2022/05/21 15:24:12;;;;;;;4.75;2.40;;;;;;;;;;4413673;32;20077;-64
2022/05/21 15:26:38;;;;;;;3.45;2.33;;;;;;;;;;4388516;32;20081;-64
2022/05/21 15:29:06;;;;;;;3.12;2.17;;;;;;;;;;4400407;32;20097;-63
2022/05/21 15:31:33;;;;;;;1.80;1.23;;;;;;;;;;4397061;32;20078;-63
2022/05/21 15:34:00;;;;;;;5.05;2.53;;;;;;;;;;4407195;32;20072;-62
2022/05/21 15:36:27;;;;;;;4.03;1.85;;;;;;;;;;4407325;32;20578;-63
2022/05/21 15:38:54;;;;;;;3.28;1.75;;;;;;;;;;4394182;32;20062;-64
2022/05/21 15:41:25;;;;;;;2.95;1.60;;;;;;;;;;4408598;32;20074;-64
2022/05/21 15:43:54;;;;;;;4.87;1.87;;;;;;;;;;4408151;32;20081;-63
2022/05/21 15:46:25;;;;;;;2.62;1.90;;;;;;;;;;4394414;32;20072;-62
2022/05/21 15:48:53;;;;;;;3.75;2.00;;;;;;;;;;4406666;32;20246;-63
2022/05/21 15:51:22;;;;;;;3.40;1.95;;;;;;;;;;4406281;32;20077;-64
2022/05/21 15:53:49;;;;;;;2.80;1.70;;;;;;;;;;4406961;32;20084;-62
2022/05/21 15:56:20;;;;;;;2.67;1.80;;;;;;;;;;4394635;32;20161;-64